Bettendorf, IA (52722)

7:24 PM CST on February 20, 2017 (GMT -0600)
Central Bettendorf | | Change Station

Elev 665 ft 41.53 °N, 90.50 °W | Updated 12 seconds ago

Rain
Rain
63.0 °F
Feels Like 63.0 °F
N
0.0
Wind Variable Wind from West
Gusts 0.0 mph

Today
High -- | Low -- °F
--% Chance of Precip.
Yesterday
High -- | Low -- °F
Precip. -- in
Pressure 29.87 in
Visibility 10.0 miles
Clouds Overcast 6500 ft
Dew Point 26 °F
Humidity 24%
Rainfall 0.00 in
Snow Depth Not available.
6:49 AM 5:42 PM
Waning Crescent, 29% visible
METAR KMLI 210052Z 24010KT 10SM OVC065 20/11 A2987 RMK AO2 SLP113 T02000111
Pressure 29.87 in
Visibility 10.0 miles
Clouds Overcast 6500 ft
Dew Point 26 °F
Humidity 24%
Rainfall 0.00 in
Snow Depth Not available.
6:49 AM 5:42 PM
Waning Crescent, 29% visible
METAR KMLI 210052Z 24010KT 10SM OVC065 20/11 A2987 RMK AO2 SLP113 T02000111

Get Your Daily Forecast Email!

Thanks for signing up!

Be on the lookout for a verification email in your inbox.

You'll start receiving the daily forecast at 8 AM.

×

10-Day Weather Forecast

Almanac

Astronomy

Feb. 20, 2017 Rise Set
Actual Time
Civil Twilight
Nautical Twilight
Astronomical Twilight
Moon
Length of Visible Light
Length of Day
Tomorrow will be .
, % of the Moon is Illuminated

Today's Extremes

State Highs State Lows

Community

WunderPhotos

Upload Photos

1,962,540 photos uploaded!

WunderBlog® & News

Nearby

Air Quality

  Air Quality AQ Index Pollutant
Not available.

Snow Depth

Station Depth Elevation

Earthquake Activity

City Distance Mag. Time & Date
Minimum magnitude displayed is 2.5.

Coastal Water Temperatures

Place Temperature

Stations

Nearby Weather Stations

Station Location Temp. Windchill Dew Point Humidity Wind Precip. Elev Updated Type
                   

Watches & Warnings

There are currently no watches in effect.